Time;durP1;ratioP1;P1;durP2;ratioP2;P2;SDS_P1;SDS_P2;PMS_P1;PMS_P2;Temp;Humidity;BMP_temperature;BMP_pressure;BME280_temperature;BME280_humidity;BME280_pressure;Samples;Min_cycle;Max_cycle;Signal;HPM_P1;HPM_P2
2022/12/16 00:01:53;;;;;;;6.10;5.60;;;;;;;-4.40;100.00;100941.06;4892663;29;20035;-64
2022/12/16 00:04:18;;;;;;;6.22;5.72;;;;;;;-4.34;100.00;100924.44;4893011;29;20032;-63
2022/12/16 00:06:43;;;;;;;6.25;5.75;;;;;;;-4.27;100.00;100935.47;4890858;29;20046;-63
2022/12/16 00:09:09;;;;;;;6.03;5.53;;;;;;;-4.25;100.00;100934.38;4892753;29;20113;-62
2022/12/16 00:11:34;;;;;;;5.65;5.18;;;;;;;-4.22;100.00;100944.81;4891599;29;20060;-63
2022/12/16 00:13:59;;;;;;;6.00;5.50;;;;;;;-4.19;100.00;100933.84;4893407;29;20032;-64
2022/12/16 00:16:25;;;;;;;6.55;5.95;;;;;;;-4.13;100.00;100947.69;4892651;29;20064;-63
2022/12/16 00:18:50;;;;;;;5.93;5.43;;;;;;;-4.06;100.00;100940.81;4893042;29;20084;-63
2022/12/16 00:21:18;;;;;;;6.13;5.55;;;;;;;-3.99;100.00;100940.16;4892262;29;20072;-64
2022/12/16 00:23:43;;;;;;;5.93;5.43;;;;;;;-3.93;100.00;100942.28;4891507;29;20115;-63
2022/12/16 00:26:10;;;;;;;5.65;5.15;;;;;;;-3.84;100.00;100940.63;4891284;29;20116;-63
2022/12/16 00:28:36;;;;;;;5.82;5.32;;;;;;;-3.77;100.00;100936.41;4893436;29;20028;-63
2022/12/16 00:31:02;;;;;;;5.55;5.13;;;;;;;-3.69;100.00;100935.75;4893281;29;20029;-63
2022/12/16 00:33:28;;;;;;;5.82;5.32;;;;;;;-3.58;100.00;100934.78;4891450;29;20028;-63
2022/12/16 00:35:54;;;;;;;5.72;5.25;;;;;;;-3.52;100.00;100936.91;4887925;29;20085;-64
2022/12/16 00:38:20;;;;;;;6.20;5.70;;;;;;;-3.48;100.00;100927.59;4874774;29;20036;-62
2022/12/16 00:40:46;;;;;;;6.00;5.50;;;;;;;-3.41;100.00;100929.59;4891168;29;20037;-64
2022/12/16 00:43:11;;;;;;;5.93;5.43;;;;;;;-3.34;100.00;100932.59;4892585;29;20024;-63
2022/12/16 00:45:38;;;;;;;6.03;5.53;;;;;;;-3.28;100.00;100933.88;4893352;29;20409;-62
2022/12/16 00:48:04;;;;;;;5.68;5.28;;;;;;;-3.22;100.00;100931.47;4893952;29;20036;-63
2022/12/16 00:50:29;;;;;;;5.75;5.25;;;;;;;-3.19;100.00;100927.66;4891676;29;20039;-63
2022/12/16 00:52:54;;;;;;;5.63;5.22;;;;;;;-3.16;100.00;100930.91;4890795;29;20044;-63
2022/12/16 00:55:20;;;;;;;5.53;5.13;;;;;;;-3.11;100.00;100940.38;4891530;29;20043;-62
2022/12/16 00:57:45;;;;;;;5.80;5.30;;;;;;;-3.10;100.00;100940.22;4891597;29;20028;-62
2022/12/16 01:00:13;;;;;;;5.68;5.18;;;;;;;-3.07;100.00;100941.81;4890778;29;20502;-64
2022/12/16 01:02:40;;;;;;;5.63;5.13;;;;;;;-3.07;100.00;100941.81;4892891;29;20033;-63
2022/12/16 01:05:06;;;;;;;5.75;5.25;;;;;;;-3.05;100.00;100946.03;4892874;29;20092;-62
2022/12/16 01:07:32;;;;;;;5.72;5.22;;;;;;;-3.00;100.00;100942.91;4893211;29;20084;-64
2022/12/16 01:09:57;;;;;;;5.80;5.30;;;;;;;-2.96;100.00;100944.34;4891771;29;20389;-63
2022/12/16 01:12:23;;;;;;;5.60;5.20;;;;;;;-2.94;100.00;100947.72;4892215;29;20084;-63
2022/12/16 01:14:48;;;;;;;5.68;5.25;;;;;;;-2.95;100.00;100946.03;4892659;29;20029;-63
2022/12/16 01:17:14;;;;;;;5.90;5.40;;;;;;;-2.93;100.00;100944.91;4893392;29;20039;-62
2022/12/16 01:19:39;;;;;;;5.78;5.28;;;;;;;-2.91;100.00;100952.84;4892736;29;20035;-63
2022/12/16 01:22:04;;;;;;;5.90;5.40;;;;;;;-2.88;100.00;100956.09;4896574;29;20035;-63
2022/12/16 01:24:30;;;;;;;5.80;5.30;;;;;;;-2.85;100.00;100956.78;4895768;29;20071;-63
2022/12/16 01:26:55;;;;;;;5.43;5.03;;;;;;;-2.87;100.00;100962.31;4895601;29;20039;-61
2022/12/16 01:29:20;;;;;;;5.90;5.40;;;;;;;-2.84;100.00;100972.75;4896245;29;20037;-63
2022/12/16 01:31:45;;;;;;;5.78;5.38;;;;;;;-2.81;100.00;100968.97;4893855;29;20029;-63
2022/12/16 01:34:11;;;;;;;5.80;5.30;;;;;;;-2.79;100.00;100970.50;4896194;29;20024;-63
2022/12/16 01:36:36;;;;;;;5.90;5.40;;;;;;;-2.75;100.00;100980.00;4896261;29;20040;-63
2022/12/16 01:39:01;;;;;;;5.82;5.32;;;;;;;-2.73;100.00;100975.34;4894156;29;20033;-62
2022/12/16 01:41:27;;;;;;;5.93;5.43;;;;;;;-2.72;100.00;100982.41;4895513;29;20020;-63
2022/12/16 01:44:28;;;;;;;6.05;5.55;;;;;;;-2.67;100.00;100988.22;4896137;29;20416;-63
2022/12/16 01:47:02;;;;;;;5.55;5.05;;;;;;;-2.64;100.00;100987.06;4896293;29;20043;-63
2022/12/16 01:49:59;;;;;;;5.45;5.00;;;;;;;-2.61;100.00;100989.47;4895512;29;20206;-62
2022/12/16 01:52:29;;;;;;;5.50;5.05;;;;;;;-2.62;100.00;100979.72;4888580;29;20056;-63
2022/12/16 01:55:14;;;;;;;5.68;5.18;;;;;;;-2.59;100.00;100992.00;4894585;29;20473;-63
2022/12/16 01:57:46;;;;;;;5.65;5.25;;;;;;;-2.61;100.00;100992.16;4883332;29;20468;-62
2022/12/16 02:00:12;;;;;;;5.80;5.30;;;;;;;-2.57;100.00;100998.97;4893211;29;20480;-63
2022/12/16 02:02:37;;;;;;;5.53;5.13;;;;;;;-2.52;100.00;101002.06;4948786;23;20197;-63
2022/12/16 02:05:22;;;;;;;5.47;5.07;;;;;;;-2.50;100.00;101001.91;4917357;29;20077;-63
2022/12/16 02:08:17;;;;;;;5.90;5.40;;;;;;;-2.46;100.00;100997.97;4933959;29;20442;-63
2022/12/16 02:10:42;;;;;;;5.55;5.13;;;;;;;-2.45;100.00;101002.34;4929290;29;20475;-64
2022/12/16 02:13:24;;;;;;;5.73;5.23;;;;;;;-2.41;100.00;101009.13;4920436;29;20115;-63
2022/12/16 02:16:02;;;;;;;5.53;5.13;;;;;;;-2.41;100.00;101014.53;4913889;29;20340;-64
2022/12/16 02:18:53;;;;;;;5.53;5.03;;;;;;;-2.40;100.00;101018.91;4925934;29;20046;-63
2022/12/16 02:21:35;;;;;;;5.78;5.28;;;;;;;-2.36;100.00;101014.94;4917333;29;20058;-63
2022/12/16 02:24:29;;;;;;;5.38;4.97;;;;;;;-2.35;100.00;101024.69;4921572;29;20493;-59
2022/12/16 02:26:54;;;;;;;5.80;5.30;;;;;;;-2.36;100.00;101020.31;4928895;29;20051;-62
2022/12/16 02:29:42;;;;;;;5.50;5.10;;;;;;;-2.32;100.00;101021.72;4913659;29;20028;-61
2022/12/16 02:32:41;;;;;;;5.85;5.35;;;;;;;-2.25;100.00;101019.31;4913954;29;20323;-61
2022/12/16 02:35:47;;;;;;;5.55;5.15;;;;;;;-2.24;100.00;101021.84;4897158;29;20105;-64
2022/12/16 02:38:37;;;;;;;5.57;5.18;;;;;;;-2.22;100.00;101019.88;4874389;29;20029;-63
2022/12/16 02:41:16;;;;;;;5.55;5.15;;;;;;;-2.21;100.00;101020.72;4912407;29;20420;-63
2022/12/16 02:43:57;;;;;;;5.80;5.30;;;;;;;-2.18;100.00;101025.81;4912186;29;20087;-63
2022/12/16 02:46:26;;;;;;;5.63;5.20;;;;;;;-2.19;100.00;101024.97;4914258;29;20032;-63
2022/12/16 02:48:52;;;;;;;5.90;5.40;;;;;;;-2.17;100.00;101028.38;4910728;29;20024;-63
2022/12/16 02:51:19;;;;;;;5.60;5.20;;;;;;;-2.14;100.00;101029.91;4922462;29;20110;-63
2022/12/16 02:53:46;;;;;;;5.70;5.20;;;;;;;-2.13;100.00;101023.53;4923844;29;20373;-60
2022/12/16 02:56:20;;;;;;;5.85;5.35;;;;;;;-2.12;100.00;101031.47;4929566;29;20020;-63
2022/12/16 02:58:51;;;;;;;5.47;5.07;;;;;;;-2.10;100.00;101034.00;4926015;29;20046;-63
2022/12/16 03:01:39;;;;;;;5.13;4.72;;;;;;;-2.08;100.00;101034.72;4927939;29;20038;-62
2022/12/16 03:04:14;;;;;;;5.43;5.03;;;;;;;-2.09;100.00;101033.88;4908418;29;20123;-63
2022/12/16 03:06:45;;;;;;;5.47;5.05;;;;;;;-2.07;100.00;101027.50;4932568;29;20090;-63
2022/12/16 03:09:14;;;;;;;5.53;5.13;;;;;;;-2.05;100.00;101033.59;4927847;29;20048;-62
2022/12/16 03:11:42;;;;;;;5.50;5.10;;;;;;;-2.03;100.00;101032.44;4912669;29;20046;-64
2022/12/16 03:14:12;;;;;;;5.85;5.32;;;;;;;-2.01;100.00;101032.31;4931453;29;20035;-63
2022/12/16 03:16:38;;;;;;;5.35;4.95;;;;;;;-2.01;100.00;101032.31;4928384;29;21155;-63
2022/12/16 03:19:07;;;;;;;5.28;4.88;;;;;;;-2.03;100.00;101035.13;4912986;29;20074;-63
2022/12/16 03:22:10;;;;;;;5.10;4.78;;;;;;;-1.99;100.00;101031.16;4931379;29;20028;-61
2022/12/16 03:24:36;;;;;;;5.25;4.85;;;;;;;-1.99;100.00;101039.22;4909208;29;20044;-64
2022/12/16 03:27:24;;;;;;;5.32;4.93;;;;;;;-1.95;100.00;101042.50;4917832;29;20486;-63
2022/12/16 03:29:56;;;;;;;5.70;5.20;;;;;;;-1.97;100.00;101039.94;4916438;29;20399;-61
2022/12/16 03:32:38;;;;;;;5.47;4.97;;;;;;;-1.95;100.00;101047.88;4920070;29;20126;-64
2022/12/16 03:35:12;;;;;;;5.32;4.93;;;;;;;-1.94;100.00;101049.56;4927109;29;20395;-63
2022/12/16 03:37:40;;;;;;;5.50;5.07;;;;;;;-1.93;100.00;101057.50;4912971;29;20083;-62
2022/12/16 03:40:08;;;;;;;5.57;5.07;;;;;;;-1.90;100.00;101050.97;4911762;29;20514;-64
2022/12/16 03:42:36;;;;;;;5.40;5.00;;;;;;;-1.90;100.00;101062.59;4912341;29;20036;-63
2022/12/16 03:45:03;;;;;;;5.65;5.25;;;;;;;-1.90;100.00;101061.75;4919367;29;20031;-63
2022/12/16 03:47:29;;;;;;;5.22;4.85;;;;;;;-1.89;100.00;101068.81;4931294;29;20119;-63
2022/12/16 03:49:54;;;;;;;5.50;5.10;;;;;;;-1.88;100.00;101074.06;4917188;29;20107;-63
2022/12/16 03:52:20;;;;;;;5.70;5.30;;;;;;;-1.87;100.00;101072.25;4915968;29;20024;-63
2022/12/16 03:54:45;;;;;;;5.65;5.25;;;;;;;-1.87;100.00;101074.94;4908628;29;20074;-63
2022/12/16 03:57:11;;;;;;;5.45;5.05;;;;;;;-1.86;100.00;101074.78;4930944;29;20035;-63
2022/12/16 03:59:37;;;;;;;5.35;4.95;;;;;;;-1.85;100.00;101072.94;4922204;29;20048;-63
2022/12/16 04:02:02;;;;;;;5.20;4.80;;;;;;;-1.85;100.00;101071.09;4924839;29;20394;-64
2022/12/16 04:04:27;;;;;;;5.47;5.03;;;;;;;-1.85;100.00;101079.16;4930469;29;20111;-64
2022/12/16 04:07:35;;;;;;;5.82;5.32;;;;;;;-1.83;100.00;101084.38;4921048;29;20395;-64
2022/12/16 04:09:41;;;;;;;5.70;5.10;;;;;;;-1.81;100.00;101086.97;4908392;29;20055;-62
2022/12/16 04:25:53;;;;;;;5.72;5.22;;;;;;;-1.76;100.00;101090.91;4917544;29;20106;-63
2022/12/16 04:28:19;;;;;;;6.03;5.53;;;;;;;-1.77;100.00;101097.28;4931897;29;20027;-63
2022/12/16 04:30:44;;;;;;;6.20;5.70;;;;;;;-1.73;100.00;101105.91;4909587;29;20577;-64
